Time;durP1;ratioP1;P1;durP2;ratioP2;P2;SDS_P1;SDS_P2;PMS_P1;PMS_P2;Temp;Humidity;BMP_temperature;BMP_pressure;BME280_temperature;BME280_humidity;BME280_pressure;Samples;Min_cycle;Max_cycle;Signal;HPM_P1;HPM_P2
2022/04/22 00:00:19;;;;;;;4.30;3.75;;;11.00;99.90;;;;;;5071206;28;20024;-81
2022/04/22 00:02:44;;;;;;;4.72;3.85;;;11.00;99.90;;;;;;5087439;28;20074;-81
2022/04/22 00:05:11;;;;;;;5.88;4.70;;;11.00;99.90;;;;;;5076384;28;20534;-81
2022/04/22 00:07:36;;;;;;;6.43;4.55;;;11.00;99.90;;;;;;5078583;28;20598;-81
2022/04/22 00:10:05;;;;;;;5.20;4.13;;;10.90;99.90;;;;;;5062748;28;20040;-81
2022/04/22 00:12:30;;;;;;;6.25;4.88;;;11.00;99.90;;;;;;5079668;28;20530;-81
2022/04/22 00:14:56;;;;;;;5.00;4.28;;;10.90;99.90;;;;;;5083596;28;20032;-81
2022/04/22 00:17:22;;;;;;;5.15;4.07;;;11.00;99.90;;;;;;5085597;28;20490;-81
2022/04/22 00:19:47;;;;;;;5.68;4.65;;;10.90;99.90;;;;;;5078672;28;20493;-81
2022/04/22 00:22:13;;;;;;;6.70;4.93;;;10.90;99.90;;;;;;5082325;28;20032;-81
2022/04/22 00:24:39;;;;;;;5.13;4.38;;;10.90;99.90;;;;;;5087986;28;20105;-81
2022/04/22 00:27:05;;;;;;;5.95;3.97;;;10.90;99.90;;;;;;5078078;28;20020;-81
2022/04/22 00:29:30;;;;;;;4.78;4.20;;;10.90;99.90;;;;;;5078986;28;20060;-81
2022/04/22 00:31:56;;;;;;;6.07;4.93;;;10.90;99.90;;;;;;5082589;28;20489;-81
2022/04/22 00:34:22;;;;;;;5.30;4.65;;;10.90;99.90;;;;;;5088238;28;20481;-81
2022/04/22 00:36:47;;;;;;;6.15;4.32;;;10.90;99.90;;;;;;5079633;28;20390;-81
2022/04/22 00:39:13;;;;;;;4.57;3.95;;;10.90;99.90;;;;;;5076558;28;20110;-81
2022/04/22 00:41:39;;;;;;;5.03;3.78;;;10.90;99.90;;;;;;5071892;28;20542;-81
2022/04/22 00:44:05;;;;;;;5.38;4.60;;;10.90;99.90;;;;;;5059274;28;20039;-81
2022/04/22 00:46:30;;;;;;;5.82;4.35;;;10.90;99.90;;;;;;5084131;28;20028;-81
2022/04/22 00:48:56;;;;;;;5.28;4.65;;;10.90;99.90;;;;;;5081263;28;20020;-81
2022/04/22 00:51:22;;;;;;;6.25;4.68;;;10.90;99.90;;;;;;5079992;28;20028;-81
2022/04/22 00:53:50;;;;;;;4.95;4.28;;;10.90;99.90;;;;;;5084675;28;20081;-81
2022/04/22 00:56:16;;;;;;;5.50;3.95;;;10.90;99.90;;;;;;5070855;28;20067;-81
2022/04/22 00:58:44;;;;;;;5.18;4.60;;;10.90;99.90;;;;;;5079402;28;20108;-81
2022/04/22 01:01:11;;;;;;;6.88;5.20;;;10.80;99.90;;;;;;5079589;28;20032;-81
2022/04/22 01:03:38;;;;;;;6.40;4.95;;;10.80;99.90;;;;;;5082266;28;20501;-81
2022/04/22 01:11:35;;;;;;;9.23;6.20;;;10.80;99.90;;;;;;5062860;28;20051;-81
2022/04/22 01:14:02;;;;;;;7.18;5.38;;;10.90;99.90;;;;;;5086473;28;20029;-81
2022/04/22 01:16:28;;;;;;;6.70;5.35;;;10.80;99.90;;;;;;5063742;28;20210;-81
2022/04/22 01:18:55;;;;;;;8.63;6.28;;;10.90;99.90;;;;;;5069406;28;20016;-81
2022/04/22 01:21:21;;;;;;;8.60;5.65;;;10.90;99.90;;;;;;5079308;28;20142;-81
2022/04/22 01:23:47;;;;;;;7.85;5.45;;;10.80;99.90;;;;;;5081041;28;20023;-81
2022/04/22 01:26:14;;;;;;;7.15;5.13;;;10.80;99.90;;;;;;5080280;28;20120;-81
2022/04/22 01:28:40;;;;;;;6.20;5.32;;;10.80;99.90;;;;;;5083263;28;20105;-81
2022/04/22 01:31:06;;;;;;;6.80;5.53;;;10.80;99.90;;;;;;5076693;28;20051;-81
2022/04/22 01:33:32;;;;;;;6.97;5.40;;;10.80;99.90;;;;;;5079595;28;20494;-81
2022/04/22 01:35:58;;;;;;;6.85;5.15;;;10.90;99.90;;;;;;5074028;28;20069;-81
2022/04/22 01:38:24;;;;;;;6.65;5.38;;;10.80;99.90;;;;;;5074119;28;20107;-81
2022/04/22 01:40:50;;;;;;;7.32;5.50;;;10.80;99.90;;;;;;5080506;28;20094;-80
2022/04/22 01:43:16;;;;;;;6.72;5.55;;;10.80;99.90;;;;;;5083767;28;20050;-80
2022/04/22 01:45:41;;;;;;;6.40;5.25;;;10.80;99.90;;;;;;5076427;28;20530;-81
2022/04/22 01:48:07;;;;;;;7.68;5.57;;;10.80;99.90;;;;;;5064993;28;20086;-81
2022/04/22 01:50:33;;;;;;;7.00;5.43;;;10.80;99.90;;;;;;5082978;28;20024;-81
2022/04/22 01:52:59;;;;;;;7.05;5.32;;;10.70;99.90;;;;;;5085746;28;20027;-81
2022/04/22 01:55:26;;;;;;;6.65;5.20;;;10.80;99.90;;;;;;5073646;28;20135;-81
2022/04/22 01:57:53;;;;;;;6.65;4.88;;;10.70;99.90;;;;;;5078740;28;20020;-81
2022/04/22 02:00:19;;;;;;;7.25;5.70;;;10.70;99.90;;;;;;5079177;28;20031;-81
2022/04/22 02:02:44;;;;;;;7.05;5.40;;;10.70;99.90;;;;;;5072772;28;20029;-80
2022/04/22 02:05:10;;;;;;;8.13;6.50;;;10.60;99.90;;;;;;5080063;28;20141;-80
2022/04/22 02:07:36;;;;;;;8.75;6.63;;;10.60;99.90;;;;;;5074218;28;20021;-80
2022/04/22 02:10:02;;;;;;;8.70;6.20;;;10.60;99.90;;;;;;5080641;28;20382;-80
2022/04/22 02:12:28;;;;;;;8.95;6.13;;;10.60;99.90;;;;;;5087090;28;20116;-80
2022/04/22 02:14:53;;;;;;;8.88;5.80;;;10.70;99.90;;;;;;5092501;28;20485;-80
2022/04/22 02:17:19;;;;;;;8.05;6.13;;;10.70;99.90;;;;;;5078200;28;20063;-80
2022/04/22 02:19:45;;;;;;;7.88;5.90;;;10.70;99.90;;;;;;5079474;28;20493;-80
2022/04/22 02:22:10;;;;;;;6.88;5.13;;;10.70;99.90;;;;;;5087238;28;20037;-80
2022/04/22 02:24:36;;;;;;;8.38;5.95;;;10.60;99.90;;;;;;5083382;28;20417;-80
2022/04/22 02:29:47;;;;;;;7.40;5.82;;;10.60;99.90;;;;;;5070593;28;20039;-80
2022/04/22 02:32:12;;;;;;;7.93;5.18;;;10.60;99.90;;;;;;5087907;28;20017;-82
2022/04/22 02:34:38;;;;;;;7.43;5.43;;;10.70;99.90;;;;;;5081260;28;20035;-81
2022/04/22 02:37:04;;;;;;;6.65;5.57;;;10.70;99.90;;;;;;5080889;28;20516;-81
2022/04/22 02:39:30;;;;;;;8.02;5.80;;;10.60;99.90;;;;;;5083622;28;20035;-81
2022/04/22 02:47:24;;;;;;;7.50;5.72;;;10.60;99.90;;;;;;5084546;28;20055;-81
2022/04/22 02:49:50;;;;;;;6.95;5.18;;;10.60;99.90;;;;;;5087492;28;20467;-81
2022/04/22 02:52:16;;;;;;;8.15;6.15;;;10.60;99.90;;;;;;5080230;28;20020;-81
2022/04/22 02:54:42;;;;;;;8.82;5.82;;;10.50;99.90;;;;;;5073240;28;20037;-81
2022/04/22 02:57:08;;;;;;;7.05;5.63;;;10.50;99.90;;;;;;5070718;28;20417;-81
2022/04/22 02:59:35;;;;;;;6.50;5.20;;;10.50;99.90;;;;;;5078701;28;20119;-81
2022/04/22 03:02:01;;;;;;;6.28;5.18;;;10.50;99.90;;;;;;5082000;28;20037;-80
2022/04/22 03:04:28;;;;;;;7.68;5.60;;;10.40;99.90;;;;;;5076288;28;20501;-81
2022/04/22 03:06:55;;;;;;;7.95;6.38;;;10.40;99.90;;;;;;5077051;28;20099;-81
2022/04/22 03:09:21;;;;;;;7.15;6.00;;;10.50;99.90;;;;;;5067709;28;20304;-80
2022/04/22 03:11:47;;;;;;;7.03;5.15;;;10.50;99.90;;;;;;5067793;28;20020;-81
2022/04/22 03:14:14;;;;;;;8.18;6.43;;;10.40;99.90;;;;;;5074860;28;20036;-80
2022/04/22 03:16:40;;;;;;;7.47;5.63;;;10.40;99.90;;;;;;5082902;28;20050;-80
2022/04/22 03:19:07;;;;;;;6.38;5.43;;;10.40;99.90;;;;;;5083663;28;20522;-81
2022/04/22 03:21:33;;;;;;;7.53;5.38;;;10.40;99.90;;;;;;5079554;28;20027;-80
2022/04/22 03:23:59;;;;;;;7.38;5.70;;;10.40;99.90;;;;;;5081424;28;20036;-80
2022/04/22 03:26:25;;;;;;;5.25;4.43;;;10.50;99.90;;;;;;5080804;28;20490;-80
2022/04/22 03:28:52;;;;;;;7.03;4.95;;;10.50;99.90;;;;;;5087540;28;20036;-80
2022/04/22 03:31:19;;;;;;;5.65;4.45;;;10.50;99.90;;;;;;5078513;28;20020;-80
2022/04/22 03:33:45;;;;;;;7.03;5.10;;;10.60;99.90;;;;;;5079999;28;20035;-80
2022/04/22 03:36:12;;;;;;;5.80;4.57;;;10.60;99.90;;;;;;5080548;28;20463;-80
2022/04/22 03:38:38;;;;;;;6.32;4.72;;;10.50;99.90;;;;;;5076454;28;20052;-81
2022/04/22 03:41:03;;;;;;;7.32;4.40;;;10.50;99.90;;;;;;5078338;28;20029;-81
2022/04/22 03:43:29;;;;;;;4.50;4.10;;;10.50;99.90;;;;;;5088181;28;20090;-80
2022/04/22 03:45:55;;;;;;;5.60;4.13;;;10.50;99.90;;;;;;5083638;28;20107;-80
2022/04/22 03:48:21;;;;;;;5.40;4.30;;;10.50;99.90;;;;;;5084250;28;20025;-81
2022/04/22 03:50:46;;;;;;;5.53;4.18;;;10.50;99.90;;;;;;5084409;28;20568;-81
2022/04/22 03:53:13;;;;;;;5.47;3.95;;;10.60;99.90;;;;;;5069594;28;20086;-81
2022/04/22 03:55:43;;;;;;;4.90;4.07;;;10.60;99.90;;;;;;5081686;28;20036;-80
2022/04/22 03:58:12;;;;;;;5.90;4.90;;;10.60;99.90;;;;;;5076695;28;20082;-80
2022/04/22 04:00:45;;;;;;;4.07;3.67;;;10.60;99.90;;;;;;5081513;28;20024;-80
2022/04/22 04:03:31;;;;;;;5.22;3.95;;;10.50;99.90;;;;;;5076592;28;20028;-81
2022/04/22 04:05:56;;;;;;;6.65;3.60;;;10.50;99.90;;;;;;5083076;28;20032;-81
2022/04/22 04:08:24;;;;;;;5.28;4.18;;;10.40;99.90;;;;;;5077714;28;20020;-80
2022/04/22 04:16:21;;;;;;;5.35;3.60;;;10.50;99.90;;;;;;5076267;28;20074;-80
2022/04/22 04:18:46;;;;;;;5.15;3.70;;;10.50;99.90;;;;;;5074454;28;20028;-80
2022/04/22 04:23:56;;;;;;;4.25;3.70;;;10.50;99.90;;;;;;5084094;28;20409;-81
2022/04/22 04:26:24;;;;;;;7.68;4.07;;;10.50;99.90;;;;;;5082470;28;20044;-80
2022/04/22 04:28:51;;;;;;;4.38;3.75;;;10.60;99.90;;;;;;5086597;28;20034;-80
2022/04/22 04:31:18;;;;;;;4.47;3.92;;;10.60;99.90;;;;;;5078646;28;20078;-80
2022/04/22 04:33:45;;;;;;;5.40;3.65;;;10.50;99.90;;;;;;5078844;28;20063;-80
2022/04/22 04:36:11;;;;;;;4.90;3.58;;;10.50;99.90;;;;;;5079222;28;20028;-80
2022/04/22 04:38:42;;;;;;;4.82;3.78;;;10.50;99.90;;;;;;5076325;28;20047;-80
2022/04/22 04:41:09;;;;;;;4.78;4.13;;;10.50;99.90;;;;;;5080716;28;20023;-80
2022/04/22 04:43:36;;;;;;;4.22;3.63;;;10.50;99.90;;;;;;5064005;28;20150;-80
2022/04/22 04:46:02;;;;;;;3.92;3.53;;;10.60;99.90;;;;;;5083976;28;20104;-80
2022/04/22 04:48:28;;;;;;;3.92;3.45;;;10.50;99.90;;;;;;5084727;28;20075;-80
2022/04/22 04:50:55;;;;;;;3.47;3.17;;;10.50;99.90;;;;;;5084395;28;20450;-80
2022/04/22 04:53:23;;;;;;;3.78;3.10;;;10.60;99.90;;;;;;5071450;28;20768;-80
2022/04/22 04:55:50;;;;;;;4.18;3.60;;;10.60;99.90;;;;;;5080479;28;20097;-80
2022/04/22 04:58:17;;;;;;;4.05;3.38;;;10.50;99.90;;;;;;5079659;28;20024;-80
2022/04/22 05:00:45;;;;;;;3.58;3.13;;;10.40;99.90;;;;;;5082661;28;20020;-80
2022/04/22 05:03:11;;;;;;;3.33;2.92;;;10.40;99.90;;;;;;5076335;28;20059;-80
2022/04/22 05:05:37;;;;;;;3.53;3.22;;;10.40;99.90;;;;;;5078261;28;20066;-80
2022/04/22 05:08:05;;;;;;;9.88;3.97;;;10.40;99.90;;;;;;5058943;28;20127;-81
2022/04/22 05:10:32;;;;;;;4.53;3.58;;;10.40;99.90;;;;;;5079434;28;20078;-81
2022/04/22 05:13:03;;;;;;;3.38;3.05;;;10.50;99.90;;;;;;5079691;28;20074;-80
2022/04/22 05:15:29;;;;;;;3.65;3.03;;;10.50;99.90;;;;;;5080891;28;20105;-80
2022/04/22 05:17:56;;;;;;;2.90;2.60;;;10.50;99.90;;;;;;5076377;28;20031;-80
2022/04/22 05:20:26;;;;;;;4.43;3.28;;;10.50;99.90;;;;;;5064041;28;20024;-80
2022/04/22 05:22:55;;;;;;;3.88;2.83;;;10.50;99.90;;;;;;5066158;28;20023;-81
2022/04/22 05:25:22;;;;;;;2.97;2.67;;;10.40;99.90;;;;;;5085981;28;20031;-80
2022/04/22 05:27:47;;;;;;;3.70;2.42;;;10.40;99.90;;;;;;5076841;28;20612;-80
2022/04/22 05:32:59;;;;;;;3.60;2.80;;;10.20;99.90;;;;;;5065675;28;20104;-80
2022/04/22 05:35:27;;;;;;;3.88;2.92;;;10.20;99.90;;;;;;5077470;28;20440;-80
2022/04/22 05:37:58;;;;;;;3.67;3.03;;;10.30;99.90;;;;;;5081560;28;20031;-80
2022/04/22 05:40:29;;;;;;;3.15;2.85;;;10.20;99.90;;;;;;5086326;28;20051;-80
2022/04/22 05:42:55;;;;;;;3.28;2.65;;;10.20;99.90;;;;;;5081882;28;20115;-80
2022/04/22 05:45:23;;;;;;;2.92;2.70;;;10.10;99.90;;;;;;5083276;28;20151;-80
2022/04/22 05:47:51;;;;;;;3.63;2.83;;;10.10;99.90;;;;;;5085217;28;20051;-80
2022/04/22 05:50:18;;;;;;;6.38;2.55;;;10.10;99.90;;;;;;5076297;28;20020;-80
2022/04/22 05:52:44;;;;;;;3.22;2.67;;;10.10;99.90;;;;;;5072913;28;20104;-80
2022/04/22 05:55:12;;;;;;;3.45;2.83;;;10.10;99.90;;;;;;5083988;28;20039;-80
2022/04/22 05:57:39;;;;;;;4.13;3.20;;;10.10;99.90;;;;;;5084825;28;20501;-80
2022/04/22 06:00:08;;;;;;;3.00;2.70;;;10.10;99.90;;;;;;5079908;28;20048;-81
2022/04/22 06:02:34;;;;;;;3.67;2.85;;;10.10;99.90;;;;;;5086174;28;20039;-80
2022/04/22 06:05:00;;;;;;;3.05;2.75;;;10.00;99.90;;;;;;5088240;28;20029;-80
2022/04/22 06:07:27;;;;;;;4.32;2.97;;;10.10;99.90;;;;;;5070071;28;20087;-80
2022/04/22 06:12:36;;;;;;;4.28;3.15;;;10.10;99.90;;;;;;5082542;28;20516;-80
2022/04/22 06:15:04;;;;;;;3.97;3.40;;;10.20;99.90;;;;;;5080874;28;20024;-80
2022/04/22 06:17:31;;;;;;;3.83;3.22;;;10.20;99.90;;;;;;5081529;28;20032;-80
2022/04/22 06:19:58;;;;;;;4.10;3.53;;;10.20;99.90;;;;;;5067216;28;20036;-80
2022/04/22 06:22:26;;;;;;;3.85;3.03;;;10.10;99.90;;;;;;5089176;28;20085;-81
2022/04/22 06:24:52;;;;;;;4.40;3.45;;;10.20;99.90;;;;;;5088653;28;20034;-81
2022/04/22 06:27:29;;;;;;;5.35;3.22;;;10.20;99.90;;;;;;5087160;28;20029;-81
2022/04/22 06:29:55;;;;;;;4.60;3.42;;;10.20;99.90;;;;;;5079565;28;20016;-80
2022/04/22 06:32:23;;;;;;;5.45;3.60;;;10.30;99.90;;;;;;5065903;28;20032;-80
2022/04/22 06:34:52;;;;;;;5.00;3.65;;;10.30;99.90;;;;;;5084163;28;20079;-80
2022/04/22 06:37:18;;;;;;;4.63;3.90;;;10.30;99.90;;;;;;5085290;28;20029;-80
2022/04/22 06:47:58;;;;;;;4.63;3.70;;;10.40;99.90;;;;;;5079753;28;20031;-80
2022/04/22 06:50:24;;;;;;;4.32;3.58;;;10.40;99.90;;;;;;5060617;28;20320;-80
2022/04/22 06:52:50;;;;;;;4.03;3.35;;;10.50;99.90;;;;;;5068922;28;20024;-80
2022/04/22 06:55:17;;;;;;;4.38;3.45;;;10.70;99.90;;;;;;5068650;28;20094;-80
2022/04/22 06:57:48;;;;;;;4.95;3.53;;;10.80;99.90;;;;;;5068637;28;20033;-80
2022/04/22 07:00:15;;;;;;;;;;;10.80;99.90;;;;;;5069148;28;20052;-80
2022/04/22 07:02:40;;;;;;;3.90;3.45;;;10.80;99.90;;;;;;5065729;28;19919;-80
2022/04/22 07:05:07;;;;;;;6.53;4.80;;;10.90;99.90;;;;;;5064210;28;20037;-80
2022/04/22 07:07:32;;;;;;;6.22;4.07;;;10.90;99.90;;;;;;5068063;28;20054;-80
2022/04/22 07:09:59;;;;;;;5.68;4.43;;;10.90;99.90;;;;;;5072979;28;20106;-80
2022/04/22 07:12:27;;;;;;;5.47;4.45;;;11.00;99.90;;;;;;5067959;28;20023;-80
2022/04/22 07:15:03;;;;;;;6.68;4.28;;;11.10;99.90;;;;;;5063250;28;20028;-80
2022/04/22 07:17:30;;;;;;;6.05;4.03;;;11.20;99.90;;;;;;5063192;28;20043;-80
2022/04/22 07:19:56;;;;;;;4.88;4.10;;;11.10;99.90;;;;;;5067125;28;20037;-80
2022/04/22 07:22:22;;;;;;;6.13;4.90;;;11.10;99.90;;;;;;5079006;28;20051;-79
2022/04/22 07:24:48;;;;;;;5.75;4.00;;;11.10;99.90;;;;;;5069366;28;20414;-79
2022/04/22 07:27:15;;;;;;;5.50;4.55;;;11.10;99.90;;;;;;5073043;28;20028;-79
2022/04/22 07:29:41;;;;;;;5.57;4.50;;;11.10;99.90;;;;;;5064054;28;20108;-79
2022/04/22 07:32:08;;;;;;;5.30;4.70;;;11.20;99.90;;;;;;5068272;28;20560;-79
2022/04/22 07:34:33;;;;;;;5.72;4.55;;;11.30;99.90;;;;;;5079286;28;20104;-79
2022/04/22 07:37:00;;;;;;;5.95;4.53;;;11.30;99.90;;;;;;5077387;28;20158;-79
2022/04/22 07:39:26;;;;;;;6.65;5.05;;;11.20;99.90;;;;;;5066259;28;20020;-78
2022/04/22 07:41:54;;;;;;;6.40;4.47;;;11.20;99.90;;;;;;5074268;28;20024;-79
2022/04/22 07:47:09;;;;;;;5.70;4.28;;;11.20;99.90;;;;;;5071346;28;20039;-79
2022/04/22 07:49:35;;;;;;;5.85;4.90;;;11.20;99.90;;;;;;5072371;28;20032;-79
2022/04/22 07:52:01;;;;;;;6.75;5.00;;;11.20;99.90;;;;;;5072248;28;20033;-79
2022/04/22 07:54:27;;;;;;;4.85;3.72;;;11.30;99.90;;;;;;5069736;28;20110;-79
2022/04/22 07:56:53;;;;;;;5.00;4.00;;;11.30;99.90;;;;;;5070008;28;20120;-79
2022/04/22 07:59:19;;;;;;;5.07;4.43;;;11.40;99.90;;;;;;5078596;28;20218;-79
2022/04/22 08:01:45;;;;;;;6.88;5.35;;;11.40;99.90;;;;;;5083384;28;20024;-80
2022/04/22 08:04:10;;;;;;;7.10;4.85;;;11.40;99.90;;;;;;5068902;28;20048;-79
2022/04/22 08:06:37;;;;;;;6.70;5.18;;;11.50;99.90;;;;;;5069397;28;20021;-79
2022/04/22 08:09:02;;;;;;;7.25;5.53;;;11.50;99.90;;;;;;5063823;28;20028;-79
2022/04/22 08:11:28;;;;;;;7.45;4.80;;;11.50;99.90;;;;;;5071784;28;20484;-79
2022/04/22 08:13:55;;;;;;;6.40;4.72;;;11.60;99.90;;;;;;5061328;28;20033;-79
2022/04/22 08:16:21;;;;;;;7.07;5.38;;;11.60;99.90;;;;;;5071996;28;20024;-79
2022/04/22 08:18:46;;;;;;;6.68;4.75;;;11.70;99.90;;;;;;5066492;28;20021;-79
2022/04/22 08:21:12;;;;;;;5.80;4.88;;;11.80;99.90;;;;;;5067566;28;20493;-79
2022/04/22 08:23:39;;;;;;;9.80;4.47;;;11.90;99.90;;;;;;5059283;28;20036;-79
2022/04/22 08:26:05;;;;;;;6.00;4.38;;;12.00;99.90;;;;;;5060448;28;20032;-79
2022/04/22 08:28:30;;;;;;;5.85;3.58;;;12.00;99.90;;;;;;5063267;28;20025;-79
2022/04/22 08:30:56;;;;;;;5.32;4.35;;;12.20;99.90;;;;;;5077030;28;20020;-79
2022/04/22 08:33:22;;;;;;;5.65;3.72;;;12.20;99.90;;;;;;5062136;28;20037;-79
2022/04/22 08:35:47;;;;;;;4.95;3.40;;;12.20;99.90;;;;;;5064824;28;20383;-79
2022/04/22 08:38:13;;;;;;;5.10;3.72;;;12.10;99.90;;;;;;5073585;28;20029;-79
2022/04/22 08:40:39;;;;;;;5.07;4.47;;;12.30;99.90;;;;;;5059318;28;20684;-79
2022/04/22 08:43:08;;;;;;;5.72;4.40;;;12.40;99.90;;;;;;5069671;28;20056;-79
2022/04/22 08:45:35;;;;;;;5.38;4.00;;;12.30;99.90;;;;;;5069502;28;20027;-79
2022/04/22 08:50:53;;;;;;;5.22;4.35;;;12.60;99.90;;;;;;5071585;28;20073;-79
2022/04/22 08:53:23;;;;;;;5.78;4.43;;;12.80;99.90;;;;;;5074841;28;20029;-78
2022/04/22 08:55:56;;;;;;;5.30;3.85;;;13.00;99.90;;;;;;5075290;28;20037;-79
2022/04/22 08:58:27;;;;;;;6.88;4.85;;;13.00;99.90;;;;;;5069067;28;20103;-79
2022/04/22 09:00:56;;;;;;;5.97;4.55;;;13.20;99.90;;;;;;5073598;28;20494;-79
2022/04/22 09:03:22;;;;;;;4.97;4.22;;;13.30;99.90;;;;;;5065796;28;20059;-79
2022/04/22 09:05:47;;;;;;;7.40;4.28;;;13.30;99.90;;;;;;5066267;28;20051;-79
2022/04/22 09:08:14;;;;;;;6.93;4.28;;;13.30;99.90;;;;;;5072936;28;20409;-79
2022/04/22 09:10:42;;;;;;;6.88;4.03;;;13.20;99.90;;;;;;5068800;28;20021;-79
2022/04/22 09:13:10;;;;;;;6.25;5.05;;;13.20;99.90;;;;;;5079296;28;20028;-79
2022/04/22 09:15:38;;;;;;;8.05;5.20;;;13.20;99.90;;;;;;5075679;28;20043;-79
2022/04/22 09:18:12;;;;;;;5.55;4.55;;;13.50;99.90;;;;;;5073576;28;20032;-79
2022/04/22 09:20:39;;;;;;;5.55;4.25;;;13.60;99.90;;;;;;5059106;28;20565;-79
2022/04/22 09:23:34;;;;;;;5.70;4.20;;;13.60;99.90;;;;;;5067333;28;20082;-79
2022/04/22 09:26:01;;;;;;;5.10;4.45;;;13.50;99.90;;;;;;5074113;28;20044;-79
2022/04/22 09:28:27;;;;;;;8.00;4.43;;;13.70;99.90;;;;;;5064696;28;20036;-79
2022/04/22 09:31:10;;;;;;;5.72;4.65;;;13.70;99.90;;;;;;5070235;28;20033;-79
2022/04/22 09:33:47;;;;;;;6.85;4.70;;;13.80;99.90;;;;;;5071954;28;20052;-79
2022/04/22 09:42:39;;;;;;;6.40;4.43;;;14.40;99.90;;;;;;5055874;28;20070;-79
2022/04/22 09:45:06;;;;;;;6.68;4.85;;;14.60;99.90;;;;;;5063486;28;20034;-79
2022/04/22 09:47:33;;;;;;;6.32;5.25;;;15.00;99.90;;;;;;5069877;28;20028;-79
2022/04/22 09:50:10;;;;;;;5.65;4.65;;;15.00;99.90;;;;;;5066419;28;20040;-79
2022/04/22 09:52:38;;;;;;;6.38;5.15;;;15.00;99.90;;;;;;5069219;28;20032;-80
2022/04/22 09:55:07;;;;;;;9.43;6.25;;;15.20;99.90;;;;;;5074841;28;20033;-78
2022/04/22 09:57:59;;;;;;;7.00;5.85;;;15.20;99.90;;;;;;5073887;28;20124;-79
2022/04/22 10:00:26;;;;;;;6.30;5.20;;;15.10;99.90;;;;;;5068985;28;20028;-78
2022/04/22 10:02:53;;;;;;;6.38;5.22;;;15.10;99.90;;;;;;5072897;28;20032;-79
2022/04/22 10:05:24;;;;;;;7.10;5.22;;;14.90;99.90;;;;;;5064061;28;20032;-79
2022/04/22 10:07:53;;;;;;;8.52;6.43;;;14.60;99.90;;;;;;5072306;28;20069;-79
2022/04/22 10:10:23;;;;;;;7.25;6.03;;;14.50;99.90;;;;;;5081371;28;20028;-79
2022/04/22 10:12:52;;;;;;;7.97;6.70;;;14.60;99.90;;;;;;5077946;28;20028;-79
2022/04/22 10:15:21;;;;;;;9.27;6.70;;;14.50;99.90;;;;;;5075374;28;20073;-79
2022/04/22 10:17:48;;;;;;;8.98;6.60;;;14.60;99.90;;;;;;5068008;28;20032;-79
2022/04/22 10:20:14;;;;;;;7.95;6.35;;;14.70;99.90;;;;;;5059889;28;20025;-78
2022/04/22 10:22:41;;;;;;;9.43;6.63;;;14.60;99.90;;;;;;5070138;28;20032;-79
2022/04/22 10:25:09;;;;;;;6.97;6.28;;;14.70;99.90;;;;;;5077357;28;20032;-79
2022/04/22 10:27:37;;;;;;;8.60;7.18;;;14.70;99.90;;;;;;5075051;28;20054;-78
2022/04/22 10:30:05;;;;;;;8.27;6.90;;;14.80;99.90;;;;;;5063042;28;20390;-79
2022/04/22 10:32:33;;;;;;;10.02;7.10;;;14.80;99.90;;;;;;5058990;28;20016;-79
2022/04/22 10:35:03;;;;;;;8.43;6.70;;;15.10;99.90;;;;;;5080228;28;20090;-78
2022/04/22 10:37:32;;;;;;;8.68;7.20;;;15.30;99.90;;;;;;5063655;28;20056;-78
2022/04/22 10:39:58;;;;;;;7.13;6.43;;;15.20;99.90;;;;;;5073603;28;20029;-78
2022/04/22 10:42:32;;;;;;;8.27;6.78;;;15.10;99.90;;;;;;5074139;28;20020;-79
2022/04/22 10:47:49;;;;;;;8.38;6.40;;;14.90;99.90;;;;;;5062750;28;20024;-78
2022/04/22 10:50:33;;;;;;;9.23;7.68;;;15.10;99.90;;;;;;5058900;28;20025;-79
2022/04/22 10:53:06;;;;;;;10.68;7.30;;;14.80;99.90;;;;;;5077246;28;20025;-78
2022/04/22 10:55:42;;;;;;;7.50;6.20;;;14.50;99.90;;;;;;5089276;28;20048;-78
2022/04/22 10:58:13;;;;;;;8.18;6.70;;;14.80;99.90;;;;;;5072497;28;20090;-78
2022/04/22 11:00:44;;;;;;;8.48;6.28;;;14.90;99.90;;;;;;5074505;28;20377;-78
2022/04/22 11:03:15;;;;;;;7.47;6.10;;;14.90;99.90;;;;;;5069547;28;20031;-78
2022/04/22 11:05:50;;;;;;;8.13;5.88;;;15.00;99.90;;;;;;5067012;28;20043;-78
2022/04/22 11:08:28;;;;;;;7.78;6.43;;;15.10;99.90;;;;;;5062527;28;20319;-78
2022/04/22 11:10:54;;;;;;;7.63;6.07;;;15.10;99.90;;;;;;5064201;28;20521;-78
2022/04/22 11:13:34;;;;;;;8.25;6.60;;;15.30;99.90;;;;;;5084902;28;20103;-78
2022/04/22 11:16:06;;;;;;;7.95;6.80;;;15.10;99.90;;;;;;5070559;28;20501;-78
2022/04/22 11:18:33;;;;;;;8.25;6.93;;;15.20;99.90;;;;;;5074609;28;20020;-79
2022/04/22 11:21:04;;;;;;;8.02;6.78;;;15.30;99.90;;;;;;5066384;28;20071;-79
2022/04/22 11:23:34;;;;;;;;;;;15.30;99.90;;;;;;5074692;28;20019;-78
2022/04/22 11:26:01;;;;;;;9.85;7.28;;;15.20;99.90;;;;;;5078731;28;19912;-78
2022/04/22 11:28:28;;;;;;;8.50;7.10;;;15.30;99.90;;;;;;5083025;28;20059;-78
2022/04/22 11:30:54;;;;;;;11.45;7.75;;;15.40;99.90;;;;;;5075818;28;20051;-79
2022/04/22 11:33:22;;;;;;;8.43;7.15;;;15.30;99.90;;;;;;5077266;28;20564;-78
2022/04/22 11:35:58;;;;;;;7.38;6.57;;;15.50;99.90;;;;;;5084445;28;20036;-78
2022/04/22 11:38:24;;;;;;;7.95;6.22;;;15.60;99.90;;;;;;5073915;28;20032;-78
2022/04/22 11:40:50;;;;;;;8.57;6.90;;;15.70;99.90;;;;;;5063741;28;20025;-79
2022/04/22 11:43:20;;;;;;;8.05;7.25;;;15.70;99.90;;;;;;5071126;28;20028;-79
2022/04/22 11:45:49;;;;;;;9.00;6.55;;;15.80;99.90;;;;;;5073515;28;20077;-79
2022/04/22 11:48:22;;;;;;;8.85;7.00;;;15.80;99.90;;;;;;5063720;28;20108;-79
2022/04/22 11:50:48;;;;;;;10.23;7.65;;;16.00;99.90;;;;;;5070257;28;20059;-79
2022/04/22 11:53:20;;;;;;;8.52;7.03;;;15.80;99.90;;;;;;5078052;28;20025;-79
2022/04/22 11:55:48;;;;;;;8.23;7.25;;;16.50;99.90;;;;;;5088751;28;20071;-79
2022/04/22 11:58:23;;;;;;;10.13;7.57;;;16.50;99.90;;;;;;5071401;28;20029;-79
2022/04/22 12:06:22;;;;;;;8.65;6.93;;;16.40;99.90;;;;;;5069202;28;20031;-79
2022/04/22 12:08:55;;;;;;;10.43;7.55;;;16.60;99.90;;;;;;5072082;28;20021;-79
2022/04/22 12:11:23;;;;;;;8.75;7.65;;;16.70;99.90;;;;;;5077732;28;20086;-79
2022/04/22 12:13:49;;;;;;;9.50;8.27;;;16.60;99.90;;;;;;5085393;28;20165;-79
2022/04/22 12:16:27;;;;;;;12.02;7.88;;;16.60;99.90;;;;;;5069253;28;20029;-79
2022/04/22 12:18:54;;;;;;;9.32;7.72;;;16.80;99.90;;;;;;5071354;28;20032;-79
2022/04/22 12:21:21;;;;;;;9.52;8.25;;;16.30;99.90;;;;;;5064670;28;20028;-79
2022/04/22 12:23:49;;;;;;;9.20;7.85;;;16.50;99.90;;;;;;5063682;28;20033;-79
2022/04/22 12:26:23;;;;;;;10.18;7.07;;;16.70;99.90;;;;;;5075803;28;20029;-79
2022/04/22 12:29:10;;;;;;;9.50;7.07;;;16.80;99.90;;;;;;5078109;28;20031;-79
2022/04/22 12:31:47;;;;;;;9.82;7.50;;;17.00;99.90;;;;;;5075210;28;20025;-79
2022/04/22 12:34:34;;;;;;;12.05;8.13;;;17.10;99.90;;;;;;5085569;28;20028;-79
2022/04/22 12:37:02;;;;;;;10.27;8.25;;;17.00;99.90;;;;;;5070767;28;20021;-79
2022/04/22 12:39:36;;;;;;;13.07;8.85;;;16.60;99.90;;;;;;5067943;28;20052;-80
2022/04/22 12:42:02;;;;;;;11.27;8.07;;;16.90;99.90;;;;;;5059505;28;20056;-79
2022/04/22 12:44:28;;;;;;;11.10;8.65;;;16.90;99.90;;;;;;5068634;28;20036;-79
2022/04/22 12:52:53;;;;;;;11.45;7.78;;;17.20;99.90;;;;;;5085267;28;20112;-79
2022/04/22 12:55:19;;;;;;;9.27;7.65;;;17.20;99.90;;;;;;5064448;28;20084;-79
2022/04/22 12:57:58;;;;;;;9.75;8.15;;;17.10;99.90;;;;;;5069596;28;20032;-80
2022/04/22 13:00:24;;;;;;;10.30;8.00;;;17.20;99.90;;;;;;5064332;28;20029;-80
2022/04/22 13:02:50;;;;;;;9.02;7.60;;;17.20;99.90;;;;;;5060339;28;20031;-78
2022/04/22 13:05:18;;;;;;;13.63;8.35;;;17.00;99.90;;;;;;5060363;28;20036;-80
2022/04/22 13:07:52;;;;;;;14.32;9.70;;;16.90;99.90;;;;;;5070062;28;20020;-77
2022/04/22 13:10:20;;;;;;;10.07;7.82;;;16.90;99.90;;;;;;5070645;28;20587;-79
2022/04/22 13:12:48;;;;;;;9.63;7.80;;;16.90;99.90;;;;;;5053465;28;20281;-78
2022/04/22 13:15:21;;;;;;;10.75;7.50;;;17.10;99.90;;;;;;5069467;28;20032;-78
2022/04/22 13:17:51;;;;;;;10.02;7.97;;;17.20;99.90;;;;;;5069628;28;20016;-78
2022/04/22 13:20:18;;;;;;;11.30;8.18;;;17.20;99.90;;;;;;5064713;28;20024;-77
2022/04/22 13:22:45;;;;;;;11.27;8.13;;;17.30;99.90;;;;;;5080817;28;20030;-80
2022/04/22 13:25:12;;;;;;;10.40;7.97;;;17.20;99.90;;;;;;5086018;28;20067;-80
2022/04/22 13:27:39;;;;;;;12.40;8.45;;;17.20;99.90;;;;;;5069519;28;20047;-78
2022/04/22 13:30:06;;;;;;;12.25;8.52;;;17.40;99.90;;;;;;5074663;28;20104;-78
2022/04/22 13:32:32;;;;;;;9.15;7.40;;;17.50;99.90;;;;;;5081941;28;20035;-77
2022/04/22 13:34:58;;;;;;;8.85;7.25;;;17.60;99.90;;;;;;5062195;28;20033;-78
2022/04/22 13:37:24;;;;;;;9.60;7.88;;;17.70;99.90;;;;;;5072599;28;20106;-78
2022/04/22 13:39:50;;;;;;;14.57;8.95;;;17.60;99.90;;;;;;5074653;28;20493;-78
2022/04/22 13:42:18;;;;;;;10.55;8.75;;;17.20;99.90;;;;;;5065865;28;20028;-78
2022/04/22 13:52:57;;;;;;;10.70;8.52;;;17.20;99.90;;;;;;5059325;28;20074;-81
2022/04/22 13:55:23;;;;;;;9.32;7.20;;;17.40;99.90;;;;;;5075951;28;20044;-80
2022/04/22 13:57:48;;;;;;;10.32;7.97;;;17.40;99.90;;;;;;5071559;28;20046;-81